createdAt,value
2022-08-22T00:00:22.904Z,14.05
2022-08-22T00:01:23.885Z,14.18
2022-08-22T00:02:22.905Z,14.05
2022-08-22T00:02:55.765Z,14.26
2022-08-22T00:02:56.264Z,16.65
2022-08-22T00:02:57.282Z,17.75
2022-08-22T00:02:58.483Z,15.37
2022-08-22T00:02:59.616Z,16.95
2022-08-22T00:02:59.809Z,19.16
2022-08-22T00:03:03.387Z,16.82
2022-08-22T00:03:04.491Z,18.67
2022-08-22T00:03:22.866Z,14.13
2022-08-22T00:04:22.845Z,14.08
2022-08-22T00:05:22.835Z,14.05
2022-08-22T00:06:22.816Z,14.07
2022-08-22T00:07:22.805Z,14.07
2022-08-22T00:08:22.789Z,14.12
2022-08-22T00:09:22.773Z,14.04
2022-08-22T00:10:25.206Z,14.04
2022-08-22T00:11:22.746Z,14.05
2022-08-22T00:12:22.731Z,14.01
2022-08-22T00:13:22.718Z,14.08
2022-08-22T00:14:22.711Z,14.01
2022-08-22T00:15:42.109Z,14.04
2022-08-22T00:16:22.674Z,14.01
2022-08-22T00:17:22.659Z,13.98
2022-08-22T00:18:22.643Z,14.01
2022-08-22T00:19:22.631Z,14.01
2022-08-22T00:20:28.246Z,13.94
2022-08-22T00:21:22.602Z,13.91
2022-08-22T00:22:22.587Z,13.91
2022-08-22T00:23:22.572Z,13.87
2022-08-22T00:24:22.557Z,13.85
2022-08-22T00:25:25.922Z,13.83
2022-08-22T00:26:22.538Z,13.79
2022-08-22T00:27:22.516Z,13.83
2022-08-22T00:28:22.498Z,13.82
2022-08-22T00:29:22.494Z,13.76
2022-08-22T00:30:22.469Z,13.78
2022-08-22T00:31:22.465Z,13.70
2022-08-22T00:32:22.442Z,13.76
2022-08-22T00:33:22.430Z,13.76
2022-08-22T00:34:22.413Z,13.71
2022-08-22T00:35:22.400Z,13.73
2022-08-22T00:36:22.397Z,13.73
2022-08-22T00:37:22.370Z,13.73
2022-08-22T00:38:22.358Z,13.78
2022-08-22T00:39:22.346Z,13.76
2022-08-22T00:40:22.450Z,13.73
2022-08-22T00:41:22.336Z,13.75
2022-08-22T00:42:29.498Z,13.68
2022-08-22T00:43:22.286Z,13.65
2022-08-22T00:44:22.268Z,13.76
2022-08-22T00:45:22.253Z,13.67
2022-08-22T00:46:22.253Z,13.71
2022-08-22T00:47:22.229Z,13.65
2022-08-22T00:48:22.213Z,13.64
2022-08-22T00:49:22.200Z,13.57
2022-08-22T00:50:22.181Z,13.60
2022-08-22T00:51:22.166Z,13.50
2022-08-22T00:52:22.150Z,13.54
2022-08-22T00:53:22.144Z,13.54
2022-08-22T00:54:22.122Z,13.57
2022-08-22T00:55:22.120Z,13.46
2022-08-22T00:56:22.106Z,13.47
2022-08-22T00:57:22.078Z,13.46
2022-08-22T00:58:22.064Z,13.36
2022-08-22T00:59:23.247Z,13.37
2022-08-22T01:00:22.055Z,13.31
2022-08-22T01:01:22.108Z,13.36
2022-08-22T01:02:22.013Z,13.28
2022-08-22T01:03:22.008Z,13.30
2022-08-22T01:04:21.973Z,13.27
2022-08-22T01:05:21.961Z,13.27
2022-08-22T01:06:21.947Z,13.28
2022-08-22T01:07:21.935Z,13.28
2022-08-22T01:08:21.917Z,13.33
2022-08-22T01:09:21.902Z,13.30
2022-08-22T01:10:21.891Z,13.27
2022-08-22T01:11:21.875Z,13.36
2022-08-22T01:12:21.886Z,13.30
2022-08-22T01:13:21.865Z,13.28
2022-08-22T01:14:34.180Z,13.27
2022-08-22T01:15:21.816Z,13.31
2022-08-22T01:16:21.804Z,13.28
2022-08-22T01:17:21.783Z,13.26
2022-08-22T01:18:21.773Z,13.30
2022-08-22T01:19:21.759Z,13.21
2022-08-22T01:20:21.737Z,13.19
2022-08-22T01:21:24.167Z,13.16
2022-08-22T01:22:21.714Z,13.26
2022-08-22T01:23:21.703Z,13.13
2022-08-22T01:24:21.682Z,13.19
2022-08-22T01:25:25.850Z,13.17
2022-08-22T01:26:21.654Z,13.12
2022-08-22T01:27:21.636Z,13.13
2022-08-22T01:28:22.854Z,13.09
2022-08-22T01:29:27.776Z,13.12
2022-08-22T01:30:23.358Z,13.13
2022-08-22T01:31:21.576Z,13.01
2022-08-22T01:32:21.563Z,13.08
2022-08-22T01:33:21.551Z,13.12
2022-08-22T01:34:21.542Z,13.02
2022-08-22T01:35:21.543Z,13.09
2022-08-22T01:36:21.504Z,13.05
2022-08-22T01:37:21.488Z,13.09
2022-08-22T01:38:21.476Z,13.12
2022-08-22T01:39:21.458Z,13.06
2022-08-22T01:40:21.481Z,13.01
2022-08-22T01:41:21.429Z,13.01
2022-08-22T01:42:21.419Z,13.03
2022-08-22T01:43:21.403Z,13.03
2022-08-22T01:44:21.388Z,12.91
2022-08-22T01:45:21.371Z,12.91
2022-08-22T01:46:21.664Z,12.94
2022-08-22T01:47:21.345Z,12.94
2022-08-22T01:48:21.326Z,13.02
2022-08-22T01:49:21.310Z,13.06
2022-08-22T01:50:21.298Z,13.03
2022-08-22T01:51:21.281Z,13.05
2022-08-22T01:52:21.273Z,13.09
2022-08-22T01:53:21.251Z,13.05
2022-08-22T01:54:21.238Z,13.05
2022-08-22T01:55:21.252Z,13.11
2022-08-22T01:56:21.265Z,13.06
2022-08-22T01:57:21.192Z,13.05
2022-08-22T01:58:21.178Z,13.21
2022-08-22T01:59:21.164Z,13.05
2022-08-22T02:00:34.920Z,13.09
2022-08-22T02:01:21.163Z,12.99
2022-08-22T02:02:21.119Z,13.11
2022-08-22T02:03:21.104Z,13.12
2022-08-22T02:04:21.088Z,13.17
2022-08-22T02:05:21.073Z,13.19
2022-08-22T02:06:21.063Z,13.16
2022-08-22T02:07:21.071Z,13.20
2022-08-22T02:08:21.029Z,13.16
2022-08-22T02:09:21.015Z,13.19
2022-08-22T02:10:20.999Z,13.19
2022-08-22T02:11:20.983Z,13.27
2022-08-22T02:12:22.011Z,13.26
2022-08-22T02:13:20.957Z,13.31
2022-08-22T02:14:20.941Z,13.42
2022-08-22T02:15:20.925Z,13.42
2022-08-22T02:16:20.922Z,13.43
2022-08-22T02:17:20.894Z,13.50
2022-08-22T02:18:20.882Z,13.55
2022-08-22T02:19:20.864Z,13.57
2022-08-22T02:20:20.860Z,13.58
2022-08-22T02:21:20.838Z,13.71
2022-08-22T02:22:20.827Z,13.67
2022-08-22T02:23:20.808Z,13.75
2022-08-22T02:24:20.798Z,13.71
2022-08-22T02:25:20.778Z,13.75
2022-08-22T02:26:20.763Z,13.80
2022-08-22T02:27:20.751Z,13.83
2022-08-22T02:28:20.733Z,13.87
2022-08-22T02:29:20.721Z,13.87
2022-08-22T02:30:20.706Z,13.76
2022-08-22T02:31:20.689Z,13.70
2022-08-22T02:32:20.672Z,13.83
2022-08-22T02:33:20.663Z,13.86
2022-08-22T02:34:20.645Z,13.86
2022-08-22T02:35:20.636Z,13.73
2022-08-22T02:36:20.615Z,13.68
2022-08-22T02:37:20.621Z,13.68
2022-08-22T02:38:20.587Z,13.76
2022-08-22T02:39:20.579Z,13.73
2022-08-22T02:40:20.582Z,13.76
2022-08-22T02:41:20.540Z,13.60
2022-08-22T02:42:20.535Z,13.58
2022-08-22T02:43:20.512Z,13.64
2022-08-22T02:44:20.499Z,13.64
2022-08-22T02:45:20.481Z,13.55
2022-08-22T02:46:20.472Z,13.62
2022-08-22T02:47:20.455Z,13.67
2022-08-22T02:48:20.439Z,13.61
2022-08-22T02:49:20.423Z,13.58
2022-08-22T02:50:20.409Z,13.54
2022-08-22T02:51:20.394Z,13.67
2022-08-22T02:52:20.378Z,13.64
2022-08-22T02:53:20.365Z,13.64
2022-08-22T02:54:20.351Z,13.65
2022-08-22T02:55:20.336Z,13.67
2022-08-22T02:56:20.322Z,13.61
2022-08-22T02:57:20.303Z,13.61
2022-08-22T02:58:20.291Z,13.62
2022-08-22T02:59:20.275Z,13.58
2022-08-22T03:00:31.090Z,13.65
2022-08-22T03:01:20.268Z,13.58
2022-08-22T03:02:20.247Z,13.61
2022-08-22T03:03:20.218Z,13.61
2022-08-22T03:04:20.206Z,13.49
2022-08-22T03:05:20.188Z,13.52
2022-08-22T03:06:20.173Z,13.54
2022-08-22T03:07:20.159Z,13.52
2022-08-22T03:08:20.143Z,13.46
2022-08-22T03:09:20.127Z,13.45
2022-08-22T03:10:20.116Z,13.40
2022-08-22T03:11:20.104Z,13.42
2022-08-22T03:12:20.088Z,13.31
2022-08-22T03:13:20.070Z,13.28
2022-08-22T03:14:20.055Z,13.33
2022-08-22T03:15:20.042Z,13.36
2022-08-22T03:16:20.026Z,13.37
2022-08-22T03:17:20.011Z,13.28
2022-08-22T03:18:19.998Z,13.31
2022-08-22T03:19:19.982Z,13.30
2022-08-22T03:20:19.967Z,13.37
2022-08-22T03:21:19.961Z,13.31
2022-08-22T03:22:19.939Z,13.37
2022-08-22T03:23:19.924Z,13.31
2022-08-22T03:24:19.907Z,13.28
2022-08-22T03:25:19.892Z,13.33
2022-08-22T03:26:19.878Z,13.23
2022-08-22T03:27:32.712Z,13.23
2022-08-22T03:28:19.852Z,13.13
2022-08-22T03:29:19.833Z,13.11
2022-08-22T03:30:19.821Z,13.16
2022-08-22T03:31:19.804Z,13.09
2022-08-22T03:32:19.788Z,13.02
2022-08-22T03:33:19.783Z,13.08
2022-08-22T03:34:19.762Z,13.11
2022-08-22T03:35:19.745Z,13.02
2022-08-22T03:36:19.730Z,13.01
2022-08-22T03:37:19.720Z,12.91
2022-08-22T03:38:19.705Z,12.88
2022-08-22T03:39:19.683Z,12.91
2022-08-22T03:40:19.795Z,12.91
2022-08-22T03:41:19.657Z,12.90
2022-08-22T03:42:19.642Z,12.91
2022-08-22T03:43:19.627Z,12.90
2022-08-22T03:44:19.613Z,12.90
2022-08-22T03:45:19.597Z,12.90
2022-08-22T03:46:19.582Z,12.95
2022-08-22T03:47:19.567Z,12.87
2022-08-22T03:48:19.557Z,12.90
2022-08-22T03:49:19.535Z,12.93
2022-08-22T03:50:19.524Z,12.88
2022-08-22T03:51:19.505Z,12.88
2022-08-22T03:52:19.498Z,12.88
2022-08-22T03:53:19.519Z,12.93
2022-08-22T03:54:19.478Z,12.83
2022-08-22T03:55:19.449Z,12.87
2022-08-22T03:56:19.431Z,12.84
2022-08-22T03:57:19.419Z,12.80
2022-08-22T03:58:28.209Z,12.86
2022-08-22T03:59:19.390Z,12.86
2022-08-22T04:00:19.371Z,12.81
2022-08-22T04:01:19.468Z,12.81
2022-08-22T04:02:24.751Z,12.81
2022-08-22T04:03:19.325Z,12.78
2022-08-22T04:04:19.313Z,12.80
2022-08-22T04:05:19.299Z,12.81
2022-08-22T04:06:19.290Z,12.83
2022-08-22T04:07:28.336Z,12.76
2022-08-22T04:08:22.029Z,12.78
2022-08-22T04:09:19.248Z,12.76
2022-08-22T04:10:19.251Z,12.75
2022-08-22T04:11:19.207Z,12.76
2022-08-22T04:12:19.192Z,12.70
2022-08-22T04:13:19.176Z,12.73
2022-08-22T04:14:19.163Z,12.80
2022-08-22T04:15:19.146Z,12.73
2022-08-22T04:16:19.137Z,12.65
2022-08-22T04:17:19.117Z,12.65
2022-08-22T04:18:19.119Z,12.65
2022-08-22T04:19:19.089Z,12.66
2022-08-22T04:20:19.076Z,12.65
2022-08-22T04:21:19.056Z,12.65
2022-08-22T04:22:19.042Z,12.61
2022-08-22T04:23:19.029Z,12.65
2022-08-22T04:24:19.020Z,12.61
2022-08-22T04:25:18.996Z,12.62
2022-08-22T04:26:27.668Z,12.76
2022-08-22T04:28:23.468Z,12.63
2022-08-22T04:29:23.441Z,12.61
2022-08-22T04:31:27.924Z,12.66
2022-08-22T04:32:27.886Z,12.51
2022-08-22T04:34:33.318Z,12.62
2022-08-22T04:35:33.292Z,12.63
2022-08-22T04:37:27.669Z,12.66
2022-08-22T04:38:27.636Z,12.61
2022-08-22T04:40:33.091Z,12.63
2022-08-22T04:41:33.066Z,12.61
2022-08-22T04:43:37.528Z,12.65
2022-08-22T04:44:37.496Z,12.63
2022-08-22T04:45:37.486Z,12.61
2022-08-22T04:46:37.468Z,12.54
2022-08-22T04:47:37.458Z,12.61
2022-08-22T04:48:37.436Z,12.58
2022-08-22T04:49:37.421Z,12.66
2022-08-22T04:50:41.259Z,12.66
2022-08-22T04:51:37.394Z,12.57
2022-08-22T04:52:37.376Z,12.61
2022-08-22T04:53:37.361Z,12.62
2022-08-22T04:54:37.343Z,12.58
2022-08-22T04:55:37.331Z,12.53
2022-08-22T04:56:37.313Z,12.63
2022-08-22T04:57:37.300Z,12.58
2022-08-22T04:58:37.283Z,12.63
2022-08-22T04:59:37.271Z,12.65
2022-08-22T05:00:37.254Z,12.55
2022-08-22T05:01:37.271Z,12.57
2022-08-22T05:02:37.222Z,12.63
2022-08-22T05:03:38.437Z,12.58
2022-08-22T05:04:37.194Z,12.61
2022-08-22T05:05:37.180Z,12.65
2022-08-22T05:06:37.163Z,12.57
2022-08-22T05:07:37.157Z,12.62
2022-08-22T05:08:37.132Z,12.62
2022-08-22T05:09:37.119Z,12.66
2022-08-22T05:10:37.100Z,12.58
2022-08-22T05:11:37.124Z,12.61
2022-08-22T05:12:37.072Z,12.62
2022-08-22T05:13:37.059Z,12.65
2022-08-22T05:14:37.042Z,12.63
2022-08-22T05:15:37.027Z,12.76
2022-08-22T05:16:37.011Z,12.80
2022-08-22T05:17:36.998Z,12.75
2022-08-22T05:18:36.982Z,12.80
2022-08-22T05:19:36.968Z,12.83
2022-08-22T05:20:36.952Z,12.86
2022-08-22T05:21:36.938Z,12.84
2022-08-22T05:22:36.922Z,12.91
2022-08-22T05:23:36.907Z,12.93
2022-08-22T05:24:36.890Z,12.94
2022-08-22T05:25:36.877Z,12.88
2022-08-22T05:26:36.860Z,13.01
2022-08-22T05:27:36.847Z,12.99
2022-08-22T05:28:36.832Z,13.08
2022-08-22T05:29:36.820Z,13.16
2022-08-22T05:30:36.799Z,13.21
2022-08-22T05:31:36.789Z,13.13
2022-08-22T05:32:36.769Z,13.13
2022-08-22T05:33:36.757Z,13.19
2022-08-22T05:34:36.738Z,13.36
2022-08-22T05:35:36.726Z,13.33
2022-08-22T05:36:36.711Z,13.42
2022-08-22T05:37:36.698Z,13.54
2022-08-22T05:38:36.680Z,13.57
2022-08-22T05:39:36.810Z,13.65
2022-08-22T05:40:37.747Z,13.73
2022-08-22T05:41:36.637Z,13.67
2022-08-22T05:42:36.618Z,13.86
2022-08-22T05:43:36.613Z,13.89
2022-08-22T05:44:36.598Z,13.97
2022-08-22T05:45:36.577Z,14.07
2022-08-22T05:46:36.562Z,14.08
2022-08-22T05:47:36.547Z,14.18
2022-08-22T05:48:36.533Z,14.36
2022-08-22T05:49:36.529Z,14.36
2022-08-22T05:50:36.502Z,14.36
2022-08-22T05:51:36.489Z,14.52
2022-08-22T05:52:36.472Z,14.70
2022-08-22T05:53:36.465Z,14.70
2022-08-22T05:54:36.444Z,14.79
2022-08-22T05:55:36.431Z,14.89
2022-08-22T05:56:36.417Z,14.99
2022-08-22T05:57:36.417Z,15.08
2022-08-22T05:58:36.385Z,15.15
2022-08-22T05:59:36.373Z,15.27
2022-08-22T06:00:36.371Z,15.41
2022-08-22T06:01:36.416Z,15.47
2022-08-22T06:02:36.329Z,15.54
2022-08-22T06:03:36.314Z,15.59
2022-08-22T06:04:36.299Z,15.69
2022-08-22T06:05:36.286Z,15.78
2022-08-22T06:06:36.273Z,15.92
2022-08-22T06:07:36.260Z,15.91
2022-08-22T06:08:36.251Z,16.00
2022-08-22T06:09:36.235Z,16.06
2022-08-22T06:10:36.217Z,16.17
2022-08-22T06:11:36.215Z,16.12
2022-08-22T06:12:36.198Z,16.22
2022-08-22T06:13:36.190Z,16.21
2022-08-22T06:14:36.165Z,16.32
2022-08-22T06:15:36.233Z,16.37
2022-08-22T06:16:36.137Z,16.40
2022-08-22T06:17:36.119Z,16.51
2022-08-22T06:18:36.102Z,16.44
2022-08-22T06:19:36.098Z,16.50
2022-08-22T06:20:36.075Z,16.58
2022-08-22T06:21:39.205Z,16.59
2022-08-22T06:22:36.046Z,16.66
2022-08-22T06:23:36.042Z,16.72
2022-08-22T06:24:36.023Z,16.72
2022-08-22T06:25:36.013Z,16.82
2022-08-22T06:26:35.993Z,16.84
2022-08-22T06:27:35.985Z,16.95
2022-08-22T06:28:35.965Z,16.98
2022-08-22T06:29:35.955Z,17.04
2022-08-22T06:30:35.942Z,17.14
2022-08-22T06:31:35.930Z,17.04
2022-08-22T06:32:59.523Z,17.10
2022-08-22T06:33:35.899Z,17.20
2022-08-22T06:34:35.887Z,17.22
2022-08-22T06:35:35.872Z,17.24
2022-08-22T06:36:35.856Z,17.34
2022-08-22T06:37:35.849Z,17.34
2022-08-22T06:38:35.832Z,17.35
2022-08-22T06:39:35.821Z,17.44
2022-08-22T06:40:35.801Z,17.57
2022-08-22T06:41:35.791Z,17.59
2022-08-22T06:42:35.774Z,17.66
2022-08-22T06:43:35.765Z,17.68
2022-08-22T06:44:35.753Z,17.71
2022-08-22T06:45:35.738Z,17.87
2022-08-22T06:46:35.725Z,17.80
2022-08-22T06:47:35.711Z,17.94
2022-08-22T06:48:35.704Z,18.05
2022-08-22T06:49:35.685Z,18.11
2022-08-22T06:50:35.672Z,18.24
2022-08-22T06:51:35.659Z,18.27
2022-08-22T06:52:35.739Z,18.36
2022-08-22T06:53:35.632Z,18.51
2022-08-22T06:54:35.617Z,18.60
2022-08-22T06:55:35.606Z,18.57
2022-08-22T06:56:35.593Z,18.74
2022-08-22T06:57:35.588Z,18.86
2022-08-22T06:58:35.565Z,18.96
2022-08-22T06:59:35.555Z,18.98
2022-08-22T07:00:35.540Z,19.22
2022-08-22T07:01:35.582Z,19.29
2022-08-22T07:02:35.514Z,19.30
2022-08-22T07:03:35.505Z,19.44
2022-08-22T07:04:35.490Z,19.56
2022-08-22T07:05:35.480Z,19.60
2022-08-22T07:06:35.465Z,19.72
2022-08-22T07:07:35.453Z,19.82
2022-08-22T07:08:39.032Z,19.92
2022-08-22T07:09:35.428Z,19.99
2022-08-22T07:10:35.414Z,20.07
2022-08-22T07:11:35.403Z,20.19
2022-08-22T07:12:35.398Z,20.15
2022-08-22T07:13:35.389Z,20.30
2022-08-22T07:14:35.384Z,20.55
2022-08-22T07:15:35.361Z,20.67
2022-08-22T07:16:35.344Z,20.83
2022-08-22T07:17:40.155Z,20.98
2022-08-22T07:18:35.319Z,21.17
2022-08-22T07:19:35.307Z,21.25
2022-08-22T07:20:35.297Z,21.51
2022-08-22T07:21:36.220Z,21.51
2022-08-22T07:22:35.271Z,21.75
2022-08-22T07:23:35.266Z,21.78
2022-08-22T07:24:35.249Z,21.92
2022-08-22T07:25:35.240Z,22.03
2022-08-22T07:26:35.238Z,22.15
2022-08-22T07:27:35.216Z,22.22
2022-08-22T07:28:36.926Z,22.30
2022-08-22T07:29:35.194Z,22.40
2022-08-22T07:30:35.185Z,22.52
2022-08-22T07:31:35.176Z,22.58
2022-08-22T07:32:35.159Z,22.59
2022-08-22T07:33:35.152Z,22.78
2022-08-22T07:34:35.138Z,22.81
2022-08-22T07:35:35.128Z,22.96
2022-08-22T07:36:35.117Z,23.04
2022-08-22T07:37:35.109Z,23.06
2022-08-22T07:38:35.099Z,23.11
2022-08-22T07:39:35.095Z,23.26
2022-08-22T07:40:35.074Z,23.37
2022-08-22T07:41:35.074Z,23.33
2022-08-22T07:42:35.058Z,23.33
2022-08-22T07:43:35.045Z,23.44
2022-08-22T07:44:35.042Z,23.56
2022-08-22T07:45:35.028Z,23.67
2022-08-22T07:46:35.016Z,23.70
2022-08-22T07:47:35.009Z,23.77
2022-08-22T07:48:48.493Z,23.94
2022-08-22T07:49:34.988Z,23.99
2022-08-22T07:50:34.981Z,24.07
2022-08-22T07:51:34.968Z,24.19
2022-08-22T07:52:34.958Z,24.18
2022-08-22T07:53:34.955Z,24.16
2022-08-22T07:54:34.943Z,24.28
2022-08-22T07:55:34.933Z,24.28
2022-08-22T07:56:34.925Z,24.36
2022-08-22T07:57:34.916Z,24.41
2022-08-22T07:58:34.903Z,24.53
2022-08-22T07:59:34.900Z,24.65
2022-08-22T08:00:34.885Z,24.75
2022-08-22T08:01:34.972Z,24.92
2022-08-22T08:02:34.868Z,25.04
2022-08-22T08:03:34.862Z,25.21
2022-08-22T08:04:39.544Z,25.31
2022-08-22T08:05:34.848Z,25.40
2022-08-22T08:06:34.836Z,25.43
2022-08-22T08:07:34.831Z,25.59
2022-08-22T08:08:34.822Z,25.62
2022-08-22T08:09:34.818Z,25.70
2022-08-22T08:10:34.814Z,25.70
2022-08-22T08:11:34.798Z,25.86
2022-08-22T08:12:34.794Z,25.85
2022-08-22T08:13:34.785Z,26.01
2022-08-22T08:14:34.777Z,26.08
2022-08-22T08:15:34.772Z,26.03
2022-08-22T08:16:34.762Z,26.13
2022-08-22T08:17:34.758Z,26.31
2022-08-22T08:18:34.748Z,26.36
2022-08-22T08:19:34.743Z,26.45
2022-08-22T08:20:34.738Z,26.56
2022-08-22T08:21:34.731Z,26.60
2022-08-22T08:22:34.721Z,26.67
2022-08-22T08:23:39.027Z,26.78
2022-08-22T08:24:36.407Z,26.76
2022-08-22T08:25:34.706Z,26.78
2022-08-22T08:26:34.696Z,26.86
2022-08-22T08:27:34.692Z,27.05
2022-08-22T08:28:34.801Z,27.01
2022-08-22T08:29:34.680Z,27.25
2022-08-22T08:30:34.676Z,27.22
2022-08-22T08:31:34.669Z,27.37
2022-08-22T08:32:34.661Z,27.48
2022-08-22T08:33:34.658Z,27.55
2022-08-22T08:34:35.404Z,27.68
2022-08-22T08:35:42.406Z,27.71
2022-08-22T08:36:34.639Z,27.68
2022-08-22T08:37:34.634Z,27.68
2022-08-22T08:38:34.636Z,27.76
2022-08-22T08:39:35.319Z,27.79
2022-08-22T08:40:34.619Z,28.01
2022-08-22T08:41:34.619Z,28.20
2022-08-22T08:42:34.607Z,28.33
2022-08-22T08:43:34.601Z,28.47
2022-08-22T08:44:34.599Z,28.50
2022-08-22T08:45:34.593Z,28.56
2022-08-22T08:46:34.587Z,28.55
2022-08-22T08:47:34.590Z,28.56
2022-08-22T08:48:34.575Z,28.59
2022-08-22T08:49:34.579Z,28.68
2022-08-22T08:50:34.569Z,28.72
2022-08-22T08:51:34.571Z,28.84
2022-08-22T08:52:34.555Z,29.00
2022-08-22T08:53:34.550Z,29.20
2022-08-22T08:54:34.549Z,29.27
2022-08-22T08:55:34.542Z,29.44
2022-08-22T08:56:34.536Z,29.59
2022-08-22T08:57:34.533Z,29.61
2022-08-22T08:58:34.530Z,29.76
2022-08-22T08:59:34.522Z,29.77
2022-08-22T09:00:34.521Z,29.64
2022-08-22T09:01:34.592Z,29.71
2022-08-22T09:02:35.190Z,29.65
2022-08-22T09:03:34.504Z,29.59
2022-08-22T09:04:34.505Z,29.61
2022-08-22T09:05:34.496Z,29.67
2022-08-22T09:06:34.493Z,29.79
2022-08-22T09:08:34.490Z,29.99
2022-08-22T09:09:34.480Z,30.10
2022-08-22T09:10:34.477Z,30.23
2022-08-22T09:11:34.471Z,30.33
2022-08-22T09:12:34.468Z,30.48
2022-08-22T09:13:40.975Z,30.43
2022-08-22T09:14:34.460Z,30.65
2022-08-22T09:15:37.406Z,30.67
2022-08-22T09:16:34.451Z,30.69
2022-08-22T09:17:34.446Z,30.78
2022-08-22T09:18:34.445Z,30.88
2022-08-22T09:19:34.438Z,31.07
2022-08-22T09:20:34.435Z,31.22
2022-08-22T09:21:34.432Z,31.35
2022-08-22T09:22:46.249Z,31.41
2022-08-22T09:23:34.422Z,31.51
2022-08-22T09:24:34.421Z,31.52
2022-08-22T09:26:34.417Z,31.72
2022-08-22T09:27:34.457Z,31.77
2022-08-22T09:28:34.404Z,31.66
2022-08-22T09:29:34.403Z,31.57
2022-08-22T09:30:34.395Z,31.51
2022-08-22T09:31:51.536Z,31.51
2022-08-22T09:32:34.401Z,31.55
2022-08-22T09:33:34.385Z,31.62
2022-08-22T09:34:34.381Z,31.63
2022-08-22T09:35:34.377Z,31.69
2022-08-22T09:36:34.377Z,31.77
2022-08-22T09:37:34.371Z,31.97
2022-08-22T09:38:34.659Z,32.02
2022-08-22T09:39:34.367Z,32.07
2022-08-22T09:40:34.360Z,32.19
2022-08-22T09:41:34.358Z,32.24
2022-08-22T09:42:34.355Z,32.37
2022-08-22T09:43:34.349Z,32.46
2022-08-22T09:44:34.358Z,32.49
2022-08-22T09:45:34.343Z,32.56
2022-08-22T09:46:36.954Z,32.49
2022-08-22T09:47:34.346Z,32.60
2022-08-22T09:48:34.335Z,32.67
2022-08-22T09:49:34.335Z,32.78
2022-08-22T09:50:34.329Z,32.91
2022-08-22T09:51:34.323Z,33.04
2022-08-22T09:52:35.714Z,33.20
2022-08-22T09:53:34.321Z,33.28
2022-08-22T09:54:34.319Z,33.35
2022-08-22T09:55:35.196Z,33.38
2022-08-22T09:56:34.313Z,33.48
2022-08-22T09:57:34.310Z,33.44
2022-08-22T09:58:37.702Z,33.40
2022-08-22T09:59:34.303Z,33.42
2022-08-22T10:00:34.301Z,33.39
2022-08-22T10:01:34.329Z,33.42
2022-08-22T10:02:34.294Z,33.53
2022-08-22T10:03:34.295Z,33.50
2022-08-22T10:04:34.335Z,33.61
2022-08-22T10:05:40.730Z,33.66
2022-08-22T10:06:34.288Z,33.67
2022-08-22T10:07:34.279Z,33.79
2022-08-22T10:08:34.283Z,33.88
2022-08-22T10:09:34.275Z,33.97
2022-08-22T10:10:34.273Z,34.06
2022-08-22T10:11:34.301Z,34.25
2022-08-22T10:12:35.972Z,34.37
2022-08-22T10:13:34.277Z,34.51
2022-08-22T10:14:34.270Z,34.75
2022-08-22T10:15:34.279Z,34.81
2022-08-22T10:16:34.276Z,35.04
2022-08-22T10:17:34.356Z,35.07
2022-08-22T10:18:34.272Z,35.18
2022-08-22T10:19:34.257Z,35.27
2022-08-22T10:20:34.252Z,35.25
2022-08-22T10:21:34.249Z,35.27
2022-08-22T10:22:34.252Z,35.32
2022-08-22T10:23:34.246Z,35.27
2022-08-22T10:24:34.257Z,35.34
2022-08-22T10:25:34.242Z,35.39
2022-08-22T10:26:38.532Z,35.50
2022-08-22T10:27:34.239Z,35.66
2022-08-22T10:28:34.244Z,35.75
2022-08-22T10:29:34.244Z,35.84
2022-08-22T10:30:34.240Z,35.86
2022-08-22T10:31:34.234Z,35.84
2022-08-22T10:32:34.233Z,35.81
2022-08-22T10:33:34.231Z,35.74
2022-08-22T10:34:34.230Z,35.63
2022-08-22T10:35:34.288Z,35.68
2022-08-22T10:36:34.247Z,35.61
2022-08-22T10:37:34.238Z,35.75
2022-08-22T10:38:34.336Z,35.74
2022-08-22T10:39:34.222Z,35.94
2022-08-22T10:40:34.225Z,36.13
2022-08-22T10:41:34.223Z,36.43
2022-08-22T10:42:35.076Z,36.70
2022-08-22T10:43:34.324Z,37.04
2022-08-22T10:44:34.236Z,37.54
2022-08-22T10:45:36.021Z,37.92
2022-08-22T10:46:34.219Z,38.20
2022-08-22T10:47:34.224Z,38.42
2022-08-22T10:48:34.224Z,38.57
2022-08-22T10:49:34.234Z,38.79
2022-08-22T10:50:34.217Z,39.01
2022-08-22T10:51:34.215Z,39.23
2022-08-22T10:52:34.217Z,39.52
2022-08-22T10:53:34.747Z,39.61
2022-08-22T10:54:34.230Z,39.59
2022-08-22T10:55:34.214Z,39.46
2022-08-22T10:56:34.219Z,39.39
2022-08-22T10:57:34.218Z,39.41
2022-08-22T10:58:34.229Z,39.52
2022-08-22T10:59:34.214Z,39.34
2022-08-22T11:00:34.279Z,38.76
2022-08-22T11:01:38.136Z,38.14
2022-08-22T11:02:34.216Z,37.66
2022-08-22T11:03:34.294Z,37.38
2022-08-22T11:04:34.225Z,37.22
2022-08-22T11:05:34.216Z,36.96
2022-08-22T11:06:34.222Z,36.97
2022-08-22T11:07:34.216Z,36.91
2022-08-22T11:08:34.641Z,37.03
2022-08-22T11:09:36.917Z,37.09
2022-08-22T11:10:34.931Z,37.23
2022-08-22T11:11:34.215Z,37.21
2022-08-22T11:12:35.057Z,37.33
2022-08-22T11:13:34.261Z,37.53
2022-08-22T11:14:34.215Z,37.63
2022-08-22T11:15:35.192Z,37.83
2022-08-22T11:16:36.641Z,37.94
2022-08-22T11:17:38.113Z,38.01
2022-08-22T11:18:34.214Z,38.05
2022-08-22T11:19:34.214Z,38.10
2022-08-22T11:20:34.214Z,38.02
2022-08-22T11:21:34.213Z,38.05
2022-08-22T11:22:34.215Z,38.05
2022-08-22T11:23:34.217Z,38.09
2022-08-22T11:24:35.689Z,38.25
2022-08-22T11:25:38.401Z,38.27
2022-08-22T11:26:41.678Z,38.36
2022-08-22T11:27:38.047Z,38.34
2022-08-22T11:28:34.227Z,38.25
2022-08-22T11:29:34.218Z,38.13
2022-08-22T11:30:36.406Z,38.02
2022-08-22T11:31:36.483Z,38.01
2022-08-22T11:32:34.215Z,38.16
2022-08-22T11:33:46.424Z,38.23
2022-08-22T11:34:34.227Z,38.41
2022-08-22T11:35:34.220Z,38.50
2022-08-22T11:36:34.218Z,38.65
2022-08-22T11:37:43.297Z,38.69
2022-08-22T11:38:36.173Z,38.81
2022-08-22T11:39:34.216Z,38.90
2022-08-22T11:40:34.308Z,39.12
2022-08-22T11:41:34.217Z,39.37
2022-08-22T11:42:34.224Z,39.49
2022-08-22T11:43:34.218Z,39.61
2022-08-22T11:44:34.532Z,39.88
2022-08-22T11:45:34.222Z,40.01
2022-08-22T11:46:34.225Z,40.07
2022-08-22T11:47:34.226Z,39.80
2022-08-22T11:48:34.234Z,39.66
2022-08-22T11:49:34.223Z,39.52
2022-08-22T11:50:34.224Z,39.52
2022-08-22T11:51:34.377Z,39.39
2022-08-22T11:52:34.240Z,39.44
2022-08-22T11:53:34.231Z,39.59
2022-08-22T11:54:34.229Z,39.75
2022-08-22T11:55:34.361Z,39.82
2022-08-22T11:56:34.229Z,39.78
2022-08-22T11:57:34.229Z,39.93
2022-08-22T11:58:34.230Z,40.00
2022-08-22T11:59:34.230Z,40.23
2022-08-22T12:00:34.234Z,40.36
2022-08-22T12:01:34.648Z,40.55
2022-08-22T12:02:34.288Z,40.71
2022-08-22T12:03:34.289Z,40.90
2022-08-22T12:04:34.325Z,41.14
2022-08-22T12:05:34.239Z,41.33
2022-08-22T12:06:34.720Z,41.41
2022-08-22T12:07:34.242Z,41.70
2022-08-22T12:08:34.246Z,41.90
2022-08-22T12:09:34.249Z,42.14
2022-08-22T12:10:34.261Z,42.44
2022-08-22T12:11:34.251Z,42.55
2022-08-22T12:12:34.251Z,42.53
2022-08-22T12:13:35.428Z,42.65
2022-08-22T12:14:34.263Z,42.71
2022-08-22T12:15:34.287Z,42.53
2022-08-22T12:16:34.262Z,42.22
2022-08-22T12:17:55.220Z,41.83
2022-08-22T12:18:34.277Z,41.30
2022-08-22T12:19:34.270Z,40.73
2022-08-22T12:20:34.272Z,40.35
2022-08-22T12:21:38.522Z,40.20
2022-08-22T12:22:34.308Z,40.28
2022-08-22T12:23:43.297Z,40.36
2022-08-22T12:24:34.286Z,40.52
2022-08-22T12:25:34.277Z,40.61
2022-08-22T12:26:34.283Z,40.49
2022-08-22T12:27:34.277Z,40.42
2022-08-22T12:28:34.280Z,40.16
2022-08-22T12:29:39.815Z,40.08
2022-08-22T12:30:34.283Z,39.75
2022-08-22T12:31:34.283Z,39.51
2022-08-22T12:32:34.307Z,39.29
2022-08-22T12:33:34.287Z,39.10
2022-08-22T12:34:34.292Z,38.69
2022-08-22T12:35:34.288Z,38.53
2022-08-22T12:36:34.292Z,38.62
2022-08-22T12:37:34.289Z,38.69
2022-08-22T12:38:37.859Z,38.69
2022-08-22T12:39:34.298Z,38.69
2022-08-22T12:40:36.422Z,38.69
2022-08-22T12:41:35.102Z,38.79
2022-08-22T12:42:34.299Z,38.88
2022-08-22T12:43:34.297Z,38.88
2022-08-22T12:44:34.307Z,39.03
2022-08-22T12:45:34.313Z,39.01
2022-08-22T12:46:34.300Z,38.85
2022-08-22T12:47:34.537Z,38.92
2022-08-22T12:48:34.314Z,39.03
2022-08-22T12:49:34.307Z,39.19
2022-08-22T12:50:34.329Z,39.68
2022-08-22T12:51:34.300Z,40.22
2022-08-22T12:52:34.301Z,40.78